sensor_id;sensor_type;location;lat;lon;timestamp;temperature;humidity
22698;DHT22;11516;51.612;7.510;2022-07-19T00:02:06;20.90;83.40
22698;DHT22;11516;51.612;7.510;2022-07-19T00:04:34;20.70;83.10
22698;DHT22;11516;51.612;7.510;2022-07-19T00:07:01;20.70;83.30
22698;DHT22;11516;51.612;7.510;2022-07-19T00:09:26;20.70;83.90
22698;DHT22;11516;51.612;7.510;2022-07-19T00:11:53;20.50;84.10
22698;DHT22;11516;51.612;7.510;2022-07-19T00:14:19;20.50;84.00
22698;DHT22;11516;51.612;7.510;2022-07-19T00:16:44;20.50;84.30
22698;DHT22;11516;51.612;7.510;2022-07-19T00:19:10;20.50;85.00
22698;DHT22;11516;51.612;7.510;2022-07-19T00:21:36;20.40;85.00
22698;DHT22;11516;51.612;7.510;2022-07-19T00:24:02;20.40;85.70
22698;DHT22;11516;51.612;7.510;2022-07-19T00:26:28;20.30;86.00
22698;DHT22;11516;51.612;7.510;2022-07-19T00:28:54;20.30;86.10
22698;DHT22;11516;51.612;7.510;2022-07-19T00:31:21;20.20;86.40
22698;DHT22;11516;51.612;7.510;2022-07-19T00:33:46;20.20;86.40
22698;DHT22;11516;51.612;7.510;2022-07-19T00:36:12;20.20;87.10
22698;DHT22;11516;51.612;7.510;2022-07-19T00:38:38;20.20;87.00
22698;DHT22;11516;51.612;7.510;2022-07-19T00:41:03;20.10;87.40
22698;DHT22;11516;51.612;7.510;2022-07-19T00:43:29;20.10;87.30
22698;DHT22;11516;51.612;7.510;2022-07-19T00:45:56;20.10;86.70
22698;DHT22;11516;51.612;7.510;2022-07-19T00:48:22;20.00;86.90
22698;DHT22;11516;51.612;7.510;2022-07-19T00:50:48;20.00;87.00
22698;DHT22;11516;51.612;7.510;2022-07-19T00:53:14;20.00;86.80
22698;DHT22;11516;51.612;7.510;2022-07-19T00:55:44;20.00;86.90
22698;DHT22;11516;51.612;7.510;2022-07-19T00:58:10;20.00;86.80
22698;DHT22;11516;51.612;7.510;2022-07-19T01:00:36;20.00;86.60
22698;DHT22;11516;51.612;7.510;2022-07-19T01:03:04;20.00;86.30
22698;DHT22;11516;51.612;7.510;2022-07-19T01:05:33;20.00;86.20
22698;DHT22;11516;51.612;7.510;2022-07-19T01:07:59;19.90;86.00
22698;DHT22;11516;51.612;7.510;2022-07-19T01:10:25;19.90;85.90
22698;DHT22;11516;51.612;7.510;2022-07-19T01:12:51;19.90;86.20
22698;DHT22;11516;51.612;7.510;2022-07-19T01:15:18;19.80;86.10
22698;DHT22;11516;51.612;7.510;2022-07-19T01:17:45;19.80;86.00
22698;DHT22;11516;51.612;7.510;2022-07-19T01:20:10;19.90;86.00
22698;DHT22;11516;51.612;7.510;2022-07-19T01:22:37;19.80;86.10
22698;DHT22;11516;51.612;7.510;2022-07-19T01:25:03;19.70;86.20
22698;DHT22;11516;51.612;7.510;2022-07-19T01:27:29;19.70;86.00
22698;DHT22;11516;51.612;7.510;2022-07-19T01:29:54;19.70;85.80
22698;DHT22;11516;51.612;7.510;2022-07-19T01:32:20;19.70;86.00
22698;DHT22;11516;51.612;7.510;2022-07-19T01:34:45;19.60;85.90
22698;DHT22;11516;51.612;7.510;2022-07-19T01:37:11;19.60;86.00
22698;DHT22;11516;51.612;7.510;2022-07-19T01:39:36;19.60;85.90
22698;DHT22;11516;51.612;7.510;2022-07-19T01:42:02;19.60;86.20
22698;DHT22;11516;51.612;7.510;2022-07-19T01:44:28;19.60;86.20
22698;DHT22;11516;51.612;7.510;2022-07-19T01:46:53;19.60;86.20
22698;DHT22;11516;51.612;7.510;2022-07-19T01:49:19;19.50;86.20
22698;DHT22;11516;51.612;7.510;2022-07-19T01:51:44;19.50;86.30
22698;DHT22;11516;51.612;7.510;2022-07-19T01:54:10;19.50;86.40
22698;DHT22;11516;51.612;7.510;2022-07-19T01:56:36;19.50;86.30
22698;DHT22;11516;51.612;7.510;2022-07-19T01:59:01;19.40;86.70
22698;DHT22;11516;51.612;7.510;2022-07-19T02:01:27;19.40;86.40
22698;DHT22;11516;51.612;7.510;2022-07-19T02:03:52;19.40;86.20
22698;DHT22;11516;51.612;7.510;2022-07-19T02:06:18;19.40;86.40
22698;DHT22;11516;51.612;7.510;2022-07-19T02:08:43;19.40;86.50
22698;DHT22;11516;51.612;7.510;2022-07-19T02:11:09;19.40;86.60
22698;DHT22;11516;51.612;7.510;2022-07-19T02:13:53;19.30;87.10
22698;DHT22;11516;51.612;7.510;2022-07-19T02:16:19;19.30;86.50
22698;DHT22;11516;51.612;7.510;2022-07-19T02:18:44;19.20;86.30
22698;DHT22;11516;51.612;7.510;2022-07-19T02:21:10;19.30;86.70
22698;DHT22;11516;51.612;7.510;2022-07-19T02:23:35;19.30;86.90
22698;DHT22;11516;51.612;7.510;2022-07-19T02:26:01;19.20;86.50
22698;DHT22;11516;51.612;7.510;2022-07-19T02:28:27;19.20;86.70
22698;DHT22;11516;51.612;7.510;2022-07-19T02:30:52;19.20;86.50
22698;DHT22;11516;51.612;7.510;2022-07-19T02:33:18;19.10;87.10
22698;DHT22;11516;51.612;7.510;2022-07-19T02:35:43;19.00;86.90
22698;DHT22;11516;51.612;7.510;2022-07-19T02:38:09;19.00;87.30
22698;DHT22;11516;51.612;7.510;2022-07-19T02:40:34;19.00;87.20
22698;DHT22;11516;51.612;7.510;2022-07-19T02:43:00;19.00;87.00
22698;DHT22;11516;51.612;7.510;2022-07-19T02:45:26;19.00;87.00
22698;DHT22;11516;51.612;7.510;2022-07-19T02:47:51;18.90;87.00
22698;DHT22;11516;51.612;7.510;2022-07-19T02:50:17;18.90;86.80
22698;DHT22;11516;51.612;7.510;2022-07-19T02:52:42;19.00;86.50
22698;DHT22;11516;51.612;7.510;2022-07-19T02:55:08;18.90;86.80
22698;DHT22;11516;51.612;7.510;2022-07-19T02:57:34;18.90;86.60
22698;DHT22;11516;51.612;7.510;2022-07-19T02:59:59;18.90;86.30
22698;DHT22;11516;51.612;7.510;2022-07-19T03:02:25;18.80;86.20
22698;DHT22;11516;51.612;7.510;2022-07-19T03:04:50;18.90;86.50
22698;DHT22;11516;51.612;7.510;2022-07-19T03:07:16;18.80;86.20
22698;DHT22;11516;51.612;7.510;2022-07-19T03:09:42;18.80;86.40
22698;DHT22;11516;51.612;7.510;2022-07-19T03:12:07;18.90;86.50
22698;DHT22;11516;51.612;7.510;2022-07-19T03:14:33;18.80;86.40
22698;DHT22;11516;51.612;7.510;2022-07-19T03:16:58;18.80;86.20
22698;DHT22;11516;51.612;7.510;2022-07-19T03:19:24;18.90;86.00
22698;DHT22;11516;51.612;7.510;2022-07-19T03:21:53;18.90;86.40
22698;DHT22;11516;51.612;7.510;2022-07-19T03:24:19;18.90;86.40
22698;DHT22;11516;51.612;7.510;2022-07-19T03:26:44;18.80;86.30
22698;DHT22;11516;51.612;7.510;2022-07-19T03:29:10;18.80;86.50
22698;DHT22;11516;51.612;7.510;2022-07-19T03:31:36;18.80;86.70
22698;DHT22;11516;51.612;7.510;2022-07-19T03:34:02;18.80;86.80
22698;DHT22;11516;51.612;7.510;2022-07-19T03:36:28;18.80;86.90
22698;DHT22;11516;51.612;7.510;2022-07-19T03:38:53;18.80;87.10
22698;DHT22;11516;51.612;7.510;2022-07-19T03:41:19;18.80;86.90
22698;DHT22;11516;51.612;7.510;2022-07-19T03:43:44;18.80;86.60
22698;DHT22;11516;51.612;7.510;2022-07-19T03:46:10;18.70;87.00
22698;DHT22;11516;51.612;7.510;2022-07-19T03:48:36;18.70;86.80
22698;DHT22;11516;51.612;7.510;2022-07-19T03:51:01;18.70;87.20
22698;DHT22;11516;51.612;7.510;2022-07-19T03:53:27;18.70;87.10
22698;DHT22;11516;51.612;7.510;2022-07-19T03:55:52;18.70;87.00
22698;DHT22;11516;51.612;7.510;2022-07-19T03:58:18;18.70;87.40
22698;DHT22;11516;51.612;7.510;2022-07-19T04:00:43;18.70;87.80
22698;DHT22;11516;51.612;7.510;2022-07-19T04:03:11;18.70;87.80
22698;DHT22;11516;51.612;7.510;2022-07-19T04:05:36;18.70;87.90
22698;DHT22;11516;51.612;7.510;2022-07-19T04:08:02;18.70;88.00
22698;DHT22;11516;51.612;7.510;2022-07-19T04:10:28;18.80;87.80
22698;DHT22;11516;51.612;7.510;2022-07-19T04:12:53;18.80;88.20
22698;DHT22;11516;51.612;7.510;2022-07-19T04:15:19;18.80;88.60
22698;DHT22;11516;51.612;7.510;2022-07-19T04:17:44;18.80;88.80
22698;DHT22;11516;51.612;7.510;2022-07-19T04:20:10;18.80;88.50
22698;DHT22;11516;51.612;7.510;2022-07-19T04:22:36;18.80;88.40
22698;DHT22;11516;51.612;7.510;2022-07-19T04:25:02;18.80;89.40
22698;DHT22;11516;51.612;7.510;2022-07-19T04:27:29;18.80;88.40
22698;DHT22;11516;51.612;7.510;2022-07-19T04:29:56;18.80;88.30
22698;DHT22;11516;51.612;7.510;2022-07-19T04:32:21;18.90;88.40
22698;DHT22;11516;51.612;7.510;2022-07-19T04:34:47;18.90;88.10
22698;DHT22;11516;51.612;7.510;2022-07-19T04:37:13;18.90;88.10
22698;DHT22;11516;51.612;7.510;2022-07-19T04:39:39;18.90;88.40
22698;DHT22;11516;51.612;7.510;2022-07-19T04:42:04;18.90;88.20
22698;DHT22;11516;51.612;7.510;2022-07-19T04:44:30;19.00;88.20
22698;DHT22;11516;51.612;7.510;2022-07-19T04:46:55;19.00;88.40
22698;DHT22;11516;51.612;7.510;2022-07-19T04:49:21;19.10;87.90
22698;DHT22;11516;51.612;7.510;2022-07-19T04:51:47;19.10;88.10
22698;DHT22;11516;51.612;7.510;2022-07-19T04:54:12;19.10;88.10
22698;DHT22;11516;51.612;7.510;2022-07-19T04:56:38;19.20;88.20
22698;DHT22;11516;51.612;7.510;2022-07-19T04:59:03;19.20;87.80
22698;DHT22;11516;51.612;7.510;2022-07-19T05:01:29;19.30;87.80
22698;DHT22;11516;51.612;7.510;2022-07-19T05:03:56;19.30;88.00
22698;DHT22;11516;51.612;7.510;2022-07-19T05:06:22;19.30;87.70
22698;DHT22;11516;51.612;7.510;2022-07-19T05:08:50;19.40;87.60
22698;DHT22;11516;51.612;7.510;2022-07-19T05:11:16;19.40;86.60
22698;DHT22;11516;51.612;7.510;2022-07-19T05:13:42;19.50;87.20
22698;DHT22;11516;51.612;7.510;2022-07-19T05:16:08;19.60;87.20
22698;DHT22;11516;51.612;7.510;2022-07-19T05:18:33;19.70;86.90
22698;DHT22;11516;51.612;7.510;2022-07-19T05:20:59;19.70;86.00
22698;DHT22;11516;51.612;7.510;2022-07-19T05:23:24;19.80;86.70
22698;DHT22;11516;51.612;7.510;2022-07-19T05:25:50;19.90;87.00
22698;DHT22;11516;51.612;7.510;2022-07-19T05:28:15;20.00;85.90
22698;DHT22;11516;51.612;7.510;2022-07-19T05:30:41;20.10;85.10
22698;DHT22;11516;51.612;7.510;2022-07-19T05:33:09;20.20;85.20
22698;DHT22;11516;51.612;7.510;2022-07-19T05:35:35;20.30;84.90
22698;DHT22;11516;51.612;7.510;2022-07-19T05:38:00;20.40;84.50
22698;DHT22;11516;51.612;7.510;2022-07-19T05:40:26;20.50;84.70
22698;DHT22;11516;51.612;7.510;2022-07-19T05:42:51;20.60;83.20
22698;DHT22;11516;51.612;7.510;2022-07-19T05:45:17;20.60;82.90
22698;DHT22;11516;51.612;7.510;2022-07-19T05:47:42;20.70;82.20
22698;DHT22;11516;51.612;7.510;2022-07-19T05:50:08;20.70;82.20
22698;DHT22;11516;51.612;7.510;2022-07-19T05:52:34;20.90;81.60
22698;DHT22;11516;51.612;7.510;2022-07-19T05:55:00;20.80;81.50
22698;DHT22;11516;51.612;7.510;2022-07-19T05:57:25;20.90;82.10
22698;DHT22;11516;51.612;7.510;2022-07-19T05:59:51;21.00;81.90
22698;DHT22;11516;51.612;7.510;2022-07-19T06:02:16;21.10;82.10
22698;DHT22;11516;51.612;7.510;2022-07-19T06:04:42;21.10;81.80
22698;DHT22;11516;51.612;7.510;2022-07-19T06:07:08;21.20;81.50
22698;DHT22;11516;51.612;7.510;2022-07-19T06:09:34;21.30;81.30
22698;DHT22;11516;51.612;7.510;2022-07-19T06:12:00;21.30;79.20
22698;DHT22;11516;51.612;7.510;2022-07-19T06:14:25;21.40;79.60
22698;DHT22;11516;51.612;7.510;2022-07-19T06:16:51;21.50;79.30
22698;DHT22;11516;51.612;7.510;2022-07-19T06:19:16;21.70;79.60
22698;DHT22;11516;51.612;7.510;2022-07-19T06:21:42;21.70;78.70
22698;DHT22;11516;51.612;7.510;2022-07-19T06:24:07;21.80;78.40
22698;DHT22;11516;51.612;7.510;2022-07-19T06:26:33;21.90;78.00
22698;DHT22;11516;51.612;7.510;2022-07-19T06:28:59;22.00;77.80
22698;DHT22;11516;51.612;7.510;2022-07-19T06:31:24;22.10;77.80
22698;DHT22;11516;51.612;7.510;2022-07-19T06:33:50;22.10;76.80
22698;DHT22;11516;51.612;7.510;2022-07-19T06:36:17;22.40;77.40
22698;DHT22;11516;51.612;7.510;2022-07-19T06:38:43;22.50;77.30
22698;DHT22;11516;51.612;7.510;2022-07-19T06:41:09;22.60;76.30
22698;DHT22;11516;51.612;7.510;2022-07-19T06:43:35;22.70;76.40
22698;DHT22;11516;51.612;7.510;2022-07-19T06:46:01;22.80;76.00
22698;DHT22;11516;51.612;7.510;2022-07-19T06:48:27;23.00;76.00
22698;DHT22;11516;51.612;7.510;2022-07-19T06:50:53;23.10;74.90
22698;DHT22;11516;51.612;7.510;2022-07-19T06:53:18;23.30;74.10
22698;DHT22;11516;51.612;7.510;2022-07-19T06:55:44;23.40;73.30
22698;DHT22;11516;51.612;7.510;2022-07-19T06:58:10;23.50;72.80
22698;DHT22;11516;51.612;7.510;2022-07-19T07:00:37;23.60;71.90
22698;DHT22;11516;51.612;7.510;2022-07-19T07:03:03;23.70;71.70
22698;DHT22;11516;51.612;7.510;2022-07-19T07:05:29;23.90;71.60
22698;DHT22;11516;51.612;7.510;2022-07-19T07:07:54;24.00;71.00
22698;DHT22;11516;51.612;7.510;2022-07-19T07:10:20;24.10;69.70
22698;DHT22;11516;51.612;7.510;2022-07-19T07:12:46;24.30;69.00
22698;DHT22;11516;51.612;7.510;2022-07-19T07:15:12;24.50;69.00
22698;DHT22;11516;51.612;7.510;2022-07-19T07:17:38;24.60;67.80
22698;DHT22;11516;51.612;7.510;2022-07-19T07:20:05;24.70;66.60
22698;DHT22;11516;51.612;7.510;2022-07-19T07:22:32;24.90;67.60
22698;DHT22;11516;51.612;7.510;2022-07-19T07:24:58;25.00;65.20
22698;DHT22;11516;51.612;7.510;2022-07-19T07:27:24;25.20;64.70
22698;DHT22;11516;51.612;7.510;2022-07-19T07:29:49;25.20;63.60
22698;DHT22;11516;51.612;7.510;2022-07-19T07:32:15;25.50;64.50
22698;DHT22;11516;51.612;7.510;2022-07-19T07:34:41;25.50;63.20
22698;DHT22;11516;51.612;7.510;2022-07-19T07:37:08;25.50;63.10
22698;DHT22;11516;51.612;7.510;2022-07-19T07:39:34;25.50;62.90
22698;DHT22;11516;51.612;7.510;2022-07-19T07:42:03;25.70;62.70
22698;DHT22;11516;51.612;7.510;2022-07-19T07:44:30;25.90;62.10
22698;DHT22;11516;51.612;7.510;2022-07-19T07:46:55;26.10;62.60
22698;DHT22;11516;51.612;7.510;2022-07-19T07:49:21;26.20;61.90
22698;DHT22;11516;51.612;7.510;2022-07-19T07:51:47;26.30;60.70
22698;DHT22;11516;51.612;7.510;2022-07-19T07:54:14;26.50;59.70
22698;DHT22;11516;51.612;7.510;2022-07-19T07:56:40;26.60;58.80
22698;DHT22;11516;51.612;7.510;2022-07-19T07:59:05;26.80;59.00
22698;DHT22;11516;51.612;7.510;2022-07-19T08:01:31;26.90;58.40
22698;DHT22;11516;51.612;7.510;2022-07-19T08:03:57;27.10;58.00
22698;DHT22;11516;51.612;7.510;2022-07-19T08:06:23;27.30;57.70
22698;DHT22;11516;51.612;7.510;2022-07-19T08:08:49;27.30;57.10
22698;DHT22;11516;51.612;7.510;2022-07-19T08:11:14;27.50;56.60
22698;DHT22;11516;51.612;7.510;2022-07-19T08:13:40;27.60;56.20
22698;DHT22;11516;51.612;7.510;2022-07-19T08:16:06;27.70;56.30
22698;DHT22;11516;51.612;7.510;2022-07-19T08:18:32;27.90;55.50
22698;DHT22;11516;51.612;7.510;2022-07-19T08:20:58;28.10;55.00
22698;DHT22;11516;51.612;7.510;2022-07-19T08:23:24;28.30;55.20
22698;DHT22;11516;51.612;7.510;2022-07-19T08:25:50;28.40;53.80
22698;DHT22;11516;51.612;7.510;2022-07-19T08:28:15;28.50;53.70
22698;DHT22;11516;51.612;7.510;2022-07-19T08:30:41;28.70;52.30
22698;DHT22;11516;51.612;7.510;2022-07-19T08:33:07;28.70;53.50
22698;DHT22;11516;51.612;7.510;2022-07-19T08:35:35;28.80;51.90
22698;DHT22;11516;51.612;7.510;2022-07-19T08:38:01;29.00;52.80
22698;DHT22;11516;51.612;7.510;2022-07-19T08:40:27;29.00;52.40
22698;DHT22;11516;51.612;7.510;2022-07-19T08:42:54;29.20;51.60
22698;DHT22;11516;51.612;7.510;2022-07-19T08:45:22;29.20;51.70
22698;DHT22;11516;51.612;7.510;2022-07-19T08:47:48;29.30;52.20
22698;DHT22;11516;51.612;7.510;2022-07-19T08:50:15;29.50;50.30
22698;DHT22;11516;51.612;7.510;2022-07-19T08:52:40;29.70;50.70
22698;DHT22;11516;51.612;7.510;2022-07-19T08:55:08;29.80;50.70
22698;DHT22;11516;51.612;7.510;2022-07-19T08:57:34;29.80;49.60
22698;DHT22;11516;51.612;7.510;2022-07-19T09:00:18;29.90;50.70
22698;DHT22;11516;51.612;7.510;2022-07-19T09:03:12;30.10;50.10
22698;DHT22;11516;51.612;7.510;2022-07-19T09:05:38;30.30;48.70
22698;DHT22;11516;51.612;7.510;2022-07-19T09:08:16;30.40;48.70
22698;DHT22;11516;51.612;7.510;2022-07-19T09:10:46;30.50;48.30
22698;DHT22;11516;51.612;7.510;2022-07-19T09:13:31;30.70;49.50
22698;DHT22;11516;51.612;7.510;2022-07-19T09:15:57;30.70;48.30
22698;DHT22;11516;51.612;7.510;2022-07-19T09:18:28;30.80;47.60
22698;DHT22;11516;51.612;7.510;2022-07-19T09:20:57;30.90;48.20
22698;DHT22;11516;51.612;7.510;2022-07-19T09:23:23;31.10;47.80
22698;DHT22;11516;51.612;7.510;2022-07-19T09:25:51;31.30;45.90
22698;DHT22;11516;51.612;7.510;2022-07-19T09:28:18;31.30;44.80
22698;DHT22;11516;51.612;7.510;2022-07-19T09:30:46;31.70;42.90
22698;DHT22;11516;51.612;7.510;2022-07-19T09:33:18;31.60;44.50
22698;DHT22;11516;51.612;7.510;2022-07-19T09:38:33;31.80;42.80
22698;DHT22;11516;51.612;7.510;2022-07-19T09:41:13;32.10;41.80
22698;DHT22;11516;51.612;7.510;2022-07-19T09:43:55;32.20;41.40
22698;DHT22;11516;51.612;7.510;2022-07-19T09:46:47;32.50;41.50
22698;DHT22;11516;51.612;7.510;2022-07-19T09:49:17;32.30;41.10
22698;DHT22;11516;51.612;7.510;2022-07-19T09:51:48;32.50;40.50
22698;DHT22;11516;51.612;7.510;2022-07-19T09:54:16;32.60;41.40
22698;DHT22;11516;51.612;7.510;2022-07-19T09:56:45;32.40;39.70
22698;DHT22;11516;51.612;7.510;2022-07-19T09:59:11;32.50;40.00
22698;DHT22;11516;51.612;7.510;2022-07-19T10:01:37;33.00;37.30
22698;DHT22;11516;51.612;7.510;2022-07-19T10:04:23;33.00;36.90
22698;DHT22;11516;51.612;7.510;2022-07-19T10:06:50;33.30;35.60
22698;DHT22;11516;51.612;7.510;2022-07-19T10:09:18;33.50;35.50
22698;DHT22;11516;51.612;7.510;2022-07-19T10:11:44;33.60;35.20
22698;DHT22;11516;51.612;7.510;2022-07-19T10:14:10;33.60;35.50
22698;DHT22;11516;51.612;7.510;2022-07-19T10:19:39;33.60;36.80
22698;DHT22;11516;51.612;7.510;2022-07-19T10:22:10;33.70;35.70
22698;DHT22;11516;51.612;7.510;2022-07-19T10:24:45;33.90;35.30
22698;DHT22;11516;51.612;7.510;2022-07-19T10:27:12;33.80;35.70
22698;DHT22;11516;51.612;7.510;2022-07-19T10:29:37;33.90;33.10
22698;DHT22;11516;51.612;7.510;2022-07-19T10:32:11;33.80;33.40
22698;DHT22;11516;51.612;7.510;2022-07-19T10:34:38;34.10;33.30
22698;DHT22;11516;51.612;7.510;2022-07-19T10:37:04;34.10;33.60
22698;DHT22;11516;51.612;7.510;2022-07-19T10:39:31;34.30;33.80
22698;DHT22;11516;51.612;7.510;2022-07-19T10:42:14;34.20;33.90
22698;DHT22;11516;51.612;7.510;2022-07-19T10:50:00;34.40;33.70
22698;DHT22;11516;51.612;7.510;2022-07-19T10:55:23;34.50;33.40
22698;DHT22;11516;51.612;7.510;2022-07-19T11:00:29;34.70;32.80
22698;DHT22;11516;51.612;7.510;2022-07-19T11:05:51;35.50;32.70
22698;DHT22;11516;51.612;7.510;2022-07-19T11:08:18;36.40;30.90
22698;DHT22;11516;51.612;7.510;2022-07-19T11:13:34;38.80;29.10
22698;DHT22;11516;51.612;7.510;2022-07-19T11:16:00;39.10;28.50
22698;DHT22;11516;51.612;7.510;2022-07-19T11:18:34;38.90;28.00
22698;DHT22;11516;51.612;7.510;2022-07-19T11:21:01;38.70;28.00
22698;DHT22;11516;51.612;7.510;2022-07-19T11:23:32;38.70;28.20
22698;DHT22;11516;51.612;7.510;2022-07-19T11:26:18;38.90;28.30
22698;DHT22;11516;51.612;7.510;2022-07-19T11:28:44;39.30;27.40
22698;DHT22;11516;51.612;7.510;2022-07-19T11:31:15;39.20;27.10
22698;DHT22;11516;51.612;7.510;2022-07-19T11:33:42;39.90;27.40
22698;DHT22;11516;51.612;7.510;2022-07-19T11:36:08;40.50;25.80
22698;DHT22;11516;51.612;7.510;2022-07-19T11:38:38;40.60;25.80
22698;DHT22;11516;51.612;7.510;2022-07-19T11:41:18;40.40;25.60
22698;DHT22;11516;51.612;7.510;2022-07-19T11:44:03;40.60;25.70
22698;DHT22;11516;51.612;7.510;2022-07-19T11:46:32;40.30;25.90
22698;DHT22;11516;51.612;7.510;2022-07-19T11:49:04;40.70;26.40
22698;DHT22;11516;51.612;7.510;2022-07-19T11:51:30;41.10;26.10
22698;DHT22;11516;51.612;7.510;2022-07-19T11:53:57;40.90;25.30
22698;DHT22;11516;51.612;7.510;2022-07-19T11:56:29;40.70;25.50
22698;DHT22;11516;51.612;7.510;2022-07-19T11:58:57;41.10;25.50
22698;DHT22;11516;51.612;7.510;2022-07-19T12:01:25;41.20;25.10
22698;DHT22;11516;51.612;7.510;2022-07-19T12:03:56;41.10;25.00
22698;DHT22;11516;51.612;7.510;2022-07-19T12:06:37;40.70;25.50
22698;DHT22;11516;51.612;7.510;2022-07-19T12:09:12;41.30;25.80
22698;DHT22;11516;51.612;7.510;2022-07-19T12:11:47;41.10;25.20
22698;DHT22;11516;51.612;7.510;2022-07-19T12:14:23;41.40;25.20
22698;DHT22;11516;51.612;7.510;2022-07-19T12:17:08;41.50;24.70
22698;DHT22;11516;51.612;7.510;2022-07-19T12:19:37;41.10;24.90
22698;DHT22;11516;51.612;7.510;2022-07-19T12:22:03;41.20;25.20
22698;DHT22;11516;51.612;7.510;2022-07-19T12:24:29;41.20;24.50
22698;DHT22;11516;51.612;7.510;2022-07-19T12:29:43;40.80;25.40
22698;DHT22;11516;51.612;7.510;2022-07-19T12:32:11;40.80;25.10
22698;DHT22;11516;51.612;7.510;2022-07-19T12:34:51;40.40;24.90
22698;DHT22;11516;51.612;7.510;2022-07-19T12:37:40;40.20;24.70
22698;DHT22;11516;51.612;7.510;2022-07-19T12:40:27;39.70;25.50
22698;DHT22;11516;51.612;7.510;2022-07-19T12:42:57;39.60;25.50
22698;DHT22;11516;51.612;7.510;2022-07-19T12:45:35;39.60;25.00
22698;DHT22;11516;51.612;7.510;2022-07-19T12:48:03;39.20;25.70
22698;DHT22;11516;51.612;7.510;2022-07-19T12:50:35;39.30;25.20
22698;DHT22;11516;51.612;7.510;2022-07-19T12:53:04;39.40;25.10
22698;DHT22;11516;51.612;7.510;2022-07-19T12:55:31;39.00;25.10
22698;DHT22;11516;51.612;7.510;2022-07-19T12:57:58;39.10;25.30
22698;DHT22;11516;51.612;7.510;2022-07-19T13:00:24;39.10;25.50
22698;DHT22;11516;51.612;7.510;2022-07-19T13:02:51;39.00;25.60
22698;DHT22;11516;51.612;7.510;2022-07-19T13:05:18;38.90;26.10
22698;DHT22;11516;51.612;7.510;2022-07-19T13:07:44;39.10;25.60
22698;DHT22;11516;51.612;7.510;2022-07-19T13:10:10;39.30;24.90
22698;DHT22;11516;51.612;7.510;2022-07-19T13:12:36;39.10;26.10
22698;DHT22;11516;51.612;7.510;2022-07-19T13:15:05;38.80;25.60
22698;DHT22;11516;51.612;7.510;2022-07-19T13:17:31;38.60;26.70
22698;DHT22;11516;51.612;7.510;2022-07-19T13:19:58;38.80;26.50
22698;DHT22;11516;51.612;7.510;2022-07-19T13:22:23;39.10;27.00
22698;DHT22;11516;51.612;7.510;2022-07-19T13:24:49;39.10;26.60
22698;DHT22;11516;51.612;7.510;2022-07-19T13:27:15;39.10;25.90
22698;DHT22;11516;51.612;7.510;2022-07-19T13:29:44;39.30;25.60
22698;DHT22;11516;51.612;7.510;2022-07-19T13:32:10;39.30;25.40
22698;DHT22;11516;51.612;7.510;2022-07-19T13:34:37;39.20;26.30
22698;DHT22;11516;51.612;7.510;2022-07-19T13:37:03;39.20;25.40
22698;DHT22;11516;51.612;7.510;2022-07-19T13:39:29;39.20;25.70
22698;DHT22;11516;51.612;7.510;2022-07-19T13:41:55;39.20;25.50
22698;DHT22;11516;51.612;7.510;2022-07-19T13:44:20;39.20;26.20
22698;DHT22;11516;51.612;7.510;2022-07-19T13:46:46;39.10;25.80
22698;DHT22;11516;51.612;7.510;2022-07-19T13:49:15;39.30;25.90
22698;DHT22;11516;51.612;7.510;2022-07-19T13:51:41;39.30;25.40
22698;DHT22;11516;51.612;7.510;2022-07-19T13:54:07;39.10;26.00
22698;DHT22;11516;51.612;7.510;2022-07-19T13:56:32;39.10;25.40
22698;DHT22;11516;51.612;7.510;2022-07-19T13:58:58;39.10;25.20
22698;DHT22;11516;51.612;7.510;2022-07-19T14:01:25;39.10;25.40
22698;DHT22;11516;51.612;7.510;2022-07-19T14:03:51;39.30;26.50
22698;DHT22;11516;51.612;7.510;2022-07-19T14:06:17;39.60;25.50
22698;DHT22;11516;51.612;7.510;2022-07-19T14:08:42;39.70;25.90
22698;DHT22;11516;51.612;7.510;2022-07-19T14:11:08;39.80;25.50
22698;DHT22;11516;51.612;7.510;2022-07-19T14:13:33;39.90;26.60
22698;DHT22;11516;51.612;7.510;2022-07-19T14:16:00;40.00;25.80
22698;DHT22;11516;51.612;7.510;2022-07-19T14:18:26;40.10;25.90
22698;DHT22;11516;51.612;7.510;2022-07-19T14:20:52;39.90;25.70
22698;DHT22;11516;51.612;7.510;2022-07-19T14:23:18;39.90;26.00
22698;DHT22;11516;51.612;7.510;2022-07-19T14:25:43;39.60;26.00
22698;DHT22;11516;51.612;7.510;2022-07-19T14:28:09;39.60;26.20
22698;DHT22;11516;51.612;7.510;2022-07-19T14:30:34;39.50;26.10
22698;DHT22;11516;51.612;7.510;2022-07-19T14:33:01;39.60;26.40
22698;DHT22;11516;51.612;7.510;2022-07-19T14:35:27;39.80;26.10
22698;DHT22;11516;51.612;7.510;2022-07-19T14:37:52;40.00;25.90
22698;DHT22;11516;51.612;7.510;2022-07-19T14:40:18;40.00;25.50
22698;DHT22;11516;51.612;7.510;2022-07-19T14:42:44;39.90;25.40
22698;DHT22;11516;51.612;7.510;2022-07-19T14:45:10;40.00;26.10
22698;DHT22;11516;51.612;7.510;2022-07-19T14:47:36;39.90;25.70
22698;DHT22;11516;51.612;7.510;2022-07-19T14:50:03;39.80;25.30
22698;DHT22;11516;51.612;7.510;2022-07-19T14:52:29;39.80;25.30
22698;DHT22;11516;51.612;7.510;2022-07-19T14:54:54;39.80;25.50
22698;DHT22;11516;51.612;7.510;2022-07-19T14:57:21;39.80;25.50
22698;DHT22;11516;51.612;7.510;2022-07-19T16:26:32;38.20;24.50
22698;DHT22;11516;51.612;7.510;2022-07-19T16:28:58;38.10;25.20
22698;DHT22;11516;51.612;7.510;2022-07-19T16:31:23;37.90;24.80
22698;DHT22;11516;51.612;7.510;2022-07-19T16:33:49;37.90;24.80
22698;DHT22;11516;51.612;7.510;2022-07-19T16:36:14;37.80;24.20
22698;DHT22;11516;51.612;7.510;2022-07-19T16:38:40;37.80;24.20
22698;DHT22;11516;51.612;7.510;2022-07-19T16:41:06;37.80;24.60
22698;DHT22;11516;51.612;7.510;2022-07-19T16:43:31;37.80;24.80
22698;DHT22;11516;51.612;7.510;2022-07-19T16:45:57;37.80;24.70
22698;DHT22;11516;51.612;7.510;2022-07-19T16:48:22;37.70;24.40
22698;DHT22;11516;51.612;7.510;2022-07-19T16:50:48;37.60;24.60
22698;DHT22;11516;51.612;7.510;2022-07-19T16:53:13;37.60;24.50
22698;DHT22;11516;51.612;7.510;2022-07-19T16:55:39;37.60;25.10
22698;DHT22;11516;51.612;7.510;2022-07-19T16:58:05;37.70;24.70
22698;DHT22;11516;51.612;7.510;2022-07-19T17:00:31;37.60;25.30
22698;DHT22;11516;51.612;7.510;2022-07-19T17:02:57;37.50;26.00
22698;DHT22;11516;51.612;7.510;2022-07-19T17:05:22;37.40;25.20
22698;DHT22;11516;51.612;7.510;2022-07-19T17:07:48;37.30;25.00
22698;DHT22;11516;51.612;7.510;2022-07-19T17:10:13;37.20;25.20
22698;DHT22;11516;51.612;7.510;2022-07-19T17:12:39;37.10;25.50
22698;DHT22;11516;51.612;7.510;2022-07-19T17:15:08;37.10;25.90
22698;DHT22;11516;51.612;7.510;2022-07-19T17:17:33;37.00;26.30
22698;DHT22;11516;51.612;7.510;2022-07-19T17:19:59;36.90;26.00
22698;DHT22;11516;51.612;7.510;2022-07-19T17:22:25;36.90;25.80